Airfield :







YOU CAN JOIN US ON...

 
LOGIN :

Register | Disclaimer

   EN    FR    IT 

 









Legend :    VFR   Marginal VFR   IFR   Intensive IFR   Very Intensive IFR
Visi :
Ceiling :
>= 8 km
>= 3000ft
5 to 8 km
1000 to 3000 ft
1500m to 5 km
500 to 1000 ft
800 to 1500m
200 to 500 ft
< 800m
< 200 ft
Symbols :   Thunderstorms  Fog  Heavy snow  Heavy precipitations  Wind > 20 kt






- Airport Elevation : 335 ft
- IATA code : BTV


KBTV - Burlington International

CURRENT METAR :
  • 240454Z 19017G30KT 10SM BKN080 OVC095 14/M01 A2979 RMK AO2 PK WND 17031/0429 SLP087 T01441011 402110006

EXPIRED METARs :
  • 240354Z 19016G24KT 10SM BKN110 OVC140 16/M01 A2977 RMK AO2 PK WND 19029/0256 SLP082 LAST T01561011
  • 240254Z 20020G31KT 10SM OVC110 17/M02 A2979 RMK AO2 PK WND 19031/0254 SLP088 T01671017 50003
  • 240154Z 19010G19KT 10SM OVC110 17/M02 A2979 RMK AO2 SLP090 T01721017
  • 240054Z 20011KT 10SM OVC110 18/M02 A2980 RMK AO2 SLP092 T01781022

TAF KBTV
Valid from the 24 at 00:00 until the 25 at 00:00 UTC


232331Z 2400/2424 19013G27KT P6SM BKN110 BKN170
FM240600 22010KT P6SM VCSH BKN030
FM240900 25010KT 4SM -RA BR OVC030
FM241200 33018G25KT 4SM -RASN BR OVC016
FM241700 34014G23KT P6SM VCSH OVC028
KZBW FIR / North America



MET'MAP, your aeronautical weather chart ! - Copyright ORBIFLY December 2007 - Disclaimer

ORBIFLY MET'MAP TEAM :

Programming & Development : Alexandra Zaïnal
Original concept : Baudouin d'Aumeries
Technical & hardware support : Manuel Goepfert
Assistance : Marc-Olivier Méhu




SOURCES & CREDITS :

   NOAA